sensor_id;sensor_type;location;lat;lon;timestamp;temperature;humidity
21666;DHT22;10994;45.486;9.190;2022-10-29T00:02:01;18.70;99.90
21666;DHT22;10994;45.486;9.190;2022-10-29T00:04:27;18.70;99.90
21666;DHT22;10994;45.486;9.190;2022-10-29T00:06:53;18.60;99.90
21666;DHT22;10994;45.486;9.190;2022-10-29T00:09:19;18.50;99.90
21666;DHT22;10994;45.486;9.190;2022-10-29T00:11:44;18.60;99.90
21666;DHT22;10994;45.486;9.190;2022-10-29T00:14:10;18.70;99.90
21666;DHT22;10994;45.486;9.190;2022-10-29T00:16:38;18.80;99.90
21666;DHT22;10994;45.486;9.190;2022-10-29T00:19:04;18.80;99.90
21666;DHT22;10994;45.486;9.190;2022-10-29T00:21:30;18.70;99.90
21666;DHT22;10994;45.486;9.190;2022-10-29T00:23:57;18.80;99.90
21666;DHT22;10994;45.486;9.190;2022-10-29T00:26:23;18.80;99.90
21666;DHT22;10994;45.486;9.190;2022-10-29T00:28:55;18.90;99.90
21666;DHT22;10994;45.486;9.190;2022-10-29T00:31:21;18.80;99.90
21666;DHT22;10994;45.486;9.190;2022-10-29T00:33:52;18.90;99.90
21666;DHT22;10994;45.486;9.190;2022-10-29T00:36:24;18.90;99.90
21666;DHT22;10994;45.486;9.190;2022-10-29T00:38:50;18.90;99.90
21666;DHT22;10994;45.486;9.190;2022-10-29T00:41:19;19.00;99.90
21666;DHT22;10994;45.486;9.190;2022-10-29T00:43:50;18.90;99.90
21666;DHT22;10994;45.486;9.190;2022-10-29T00:46:19;18.90;99.90
21666;DHT22;10994;45.486;9.190;2022-10-29T00:48:49;18.70;99.90
21666;DHT22;10994;45.486;9.190;2022-10-29T00:51:17;18.70;99.90
21666;DHT22;10994;45.486;9.190;2022-10-29T00:54:03;18.70;99.90
21666;DHT22;10994;45.486;9.190;2022-10-29T00:56:32;18.70;99.90
21666;DHT22;10994;45.486;9.190;2022-10-29T00:58:58;18.70;99.90
21666;DHT22;10994;45.486;9.190;2022-10-29T01:01:24;18.70;99.90
21666;DHT22;10994;45.486;9.190;2022-10-29T01:03:51;18.70;99.90
21666;DHT22;10994;45.486;9.190;2022-10-29T01:06:17;18.70;99.90
21666;DHT22;10994;45.486;9.190;2022-10-29T01:08:43;18.60;99.90
21666;DHT22;10994;45.486;9.190;2022-10-29T01:11:15;18.50;99.90
21666;DHT22;10994;45.486;9.190;2022-10-29T01:16:49;18.30;99.90
21666;DHT22;10994;45.486;9.190;2022-10-29T01:22:39;18.30;99.90
21666;DHT22;10994;45.486;9.190;2022-10-29T01:28:40;18.10;99.90
21666;DHT22;10994;45.486;9.190;2022-10-29T01:31:38;17.90;99.90
21666;DHT22;10994;45.486;9.190;2022-10-29T01:34:20;17.90;99.90
21666;DHT22;10994;45.486;9.190;2022-10-29T01:36:54;18.00;99.90
21666;DHT22;10994;45.486;9.190;2022-10-29T01:42:14;18.20;99.90
21666;DHT22;10994;45.486;9.190;2022-10-29T01:44:55;18.30;99.90
21666;DHT22;10994;45.486;9.190;2022-10-29T01:47:27;18.30;99.90
21666;DHT22;10994;45.486;9.190;2022-10-29T01:50:00;18.30;99.90
21666;DHT22;10994;45.486;9.190;2022-10-29T01:52:29;18.20;99.90
21666;DHT22;10994;45.486;9.190;2022-10-29T01:54:57;18.10;99.90
21666;DHT22;10994;45.486;9.190;2022-10-29T01:57:34;18.00;99.90
21666;DHT22;10994;45.486;9.190;2022-10-29T02:00:13;18.10;99.90
21666;DHT22;10994;45.486;9.190;2022-10-29T02:07:50;17.90;99.90
21666;DHT22;10994;45.486;9.190;2022-10-29T02:10:25;17.90;99.90
21666;DHT22;10994;45.486;9.190;2022-10-29T02:12:53;18.00;99.90
21666;DHT22;10994;45.486;9.190;2022-10-29T02:15:30;18.10;99.90
21666;DHT22;10994;45.486;9.190;2022-10-29T02:18:02;18.10;99.90
21666;DHT22;10994;45.486;9.190;2022-10-29T02:20:29;17.90;99.90
21666;DHT22;10994;45.486;9.190;2022-10-29T02:22:55;17.80;99.90
21666;DHT22;10994;45.486;9.190;2022-10-29T02:25:21;17.80;99.90
21666;DHT22;10994;45.486;9.190;2022-10-29T02:27:46;17.70;99.90
21666;DHT22;10994;45.486;9.190;2022-10-29T02:30:12;17.60;99.90
21666;DHT22;10994;45.486;9.190;2022-10-29T02:32:38;17.70;99.90
21666;DHT22;10994;45.486;9.190;2022-10-29T02:35:04;17.80;99.90
21666;DHT22;10994;45.486;9.190;2022-10-29T02:37:30;17.90;99.90
21666;DHT22;10994;45.486;9.190;2022-10-29T02:39:55;17.60;99.90
21666;DHT22;10994;45.486;9.190;2022-10-29T02:44:47;17.30;99.90
21666;DHT22;10994;45.486;9.190;2022-10-29T02:47:13;17.20;99.90
21666;DHT22;10994;45.486;9.190;2022-10-29T02:49:39;17.30;99.90
21666;DHT22;10994;45.486;9.190;2022-10-29T02:52:04;17.40;99.90
21666;DHT22;10994;45.486;9.190;2022-10-29T02:54:30;17.30;99.90
21666;DHT22;10994;45.486;9.190;2022-10-29T02:56:56;17.10;99.90
21666;DHT22;10994;45.486;9.190;2022-10-29T02:59:22;17.00;99.90
21666;DHT22;10994;45.486;9.190;2022-10-29T03:01:48;17.10;99.90
21666;DHT22;10994;45.486;9.190;2022-10-29T03:04:13;17.10;99.90
21666;DHT22;10994;45.486;9.190;2022-10-29T03:06:39;17.00;99.90
21666;DHT22;10994;45.486;9.190;2022-10-29T03:09:05;17.00;99.90
21666;DHT22;10994;45.486;9.190;2022-10-29T03:11:31;17.10;99.90
21666;DHT22;10994;45.486;9.190;2022-10-29T03:13:57;17.10;99.90
21666;DHT22;10994;45.486;9.190;2022-10-29T03:16:23;17.10;99.90
21666;DHT22;10994;45.486;9.190;2022-10-29T03:18:48;17.00;99.90
21666;DHT22;10994;45.486;9.190;2022-10-29T03:21:14;17.00;99.90
21666;DHT22;10994;45.486;9.190;2022-10-29T03:23:40;17.00;99.90
21666;DHT22;10994;45.486;9.190;2022-10-29T03:26:05;17.00;99.90
21666;DHT22;10994;45.486;9.190;2022-10-29T03:28:31;16.90;99.90
21666;DHT22;10994;45.486;9.190;2022-10-29T03:30:57;16.90;99.90
21666;DHT22;10994;45.486;9.190;2022-10-29T03:33:24;16.90;99.90
21666;DHT22;10994;45.486;9.190;2022-10-29T03:36:04;16.90;99.90
21666;DHT22;10994;45.486;9.190;2022-10-29T03:38:31;16.80;99.90
21666;DHT22;10994;45.486;9.190;2022-10-29T03:40:57;16.80;99.90
21666;DHT22;10994;45.486;9.190;2022-10-29T03:43:23;16.70;99.90
21666;DHT22;10994;45.486;9.190;2022-10-29T03:45:54;16.70;99.90
21666;DHT22;10994;45.486;9.190;2022-10-29T03:48:21;16.80;99.90
21666;DHT22;10994;45.486;9.190;2022-10-29T03:50:54;16.70;99.90
21666;DHT22;10994;45.486;9.190;2022-10-29T03:53:20;16.70;99.90
21666;DHT22;10994;45.486;9.190;2022-10-29T03:55:46;16.70;99.90
21666;DHT22;10994;45.486;9.190;2022-10-29T03:58:11;16.70;99.90
21666;DHT22;10994;45.486;9.190;2022-10-29T04:00:37;16.70;99.90
21666;DHT22;10994;45.486;9.190;2022-10-29T04:03:03;16.70;99.90
21666;DHT22;10994;45.486;9.190;2022-10-29T04:05:28;16.70;99.90
21666;DHT22;10994;45.486;9.190;2022-10-29T04:07:54;16.70;99.90
21666;DHT22;10994;45.486;9.190;2022-10-29T04:10:20;16.60;99.90
21666;DHT22;10994;45.486;9.190;2022-10-29T04:12:45;16.70;99.90
21666;DHT22;10994;45.486;9.190;2022-10-29T04:15:11;16.70;99.90
21666;DHT22;10994;45.486;9.190;2022-10-29T04:17:37;16.80;99.90
21666;DHT22;10994;45.486;9.190;2022-10-29T04:20:03;16.80;99.90
21666;DHT22;10994;45.486;9.190;2022-10-29T04:22:28;16.80;99.90
21666;DHT22;10994;45.486;9.190;2022-10-29T04:24:54;16.90;99.90
21666;DHT22;10994;45.486;9.190;2022-10-29T04:27:20;17.00;99.90
21666;DHT22;10994;45.486;9.190;2022-10-29T04:29:45;17.00;99.90
21666;DHT22;10994;45.486;9.190;2022-10-29T04:32:11;17.10;99.90
21666;DHT22;10994;45.486;9.190;2022-10-29T04:34:37;17.20;99.90
21666;DHT22;10994;45.486;9.190;2022-10-29T04:37:02;17.30;99.90
21666;DHT22;10994;45.486;9.190;2022-10-29T04:39:28;17.30;99.90
21666;DHT22;10994;45.486;9.190;2022-10-29T04:41:54;17.30;99.90
21666;DHT22;10994;45.486;9.190;2022-10-29T04:44:19;17.10;99.90
21666;DHT22;10994;45.486;9.190;2022-10-29T04:46:46;17.10;99.90
21666;DHT22;10994;45.486;9.190;2022-10-29T04:49:12;17.10;99.90
21666;DHT22;10994;45.486;9.190;2022-10-29T04:51:37;17.00;99.90
21666;DHT22;10994;45.486;9.190;2022-10-29T04:54:03;17.00;99.90
21666;DHT22;10994;45.486;9.190;2022-10-29T04:56:30;17.00;99.90
21666;DHT22;10994;45.486;9.190;2022-10-29T04:58:55;17.00;99.90
21666;DHT22;10994;45.486;9.190;2022-10-29T05:01:21;17.10;99.90
21666;DHT22;10994;45.486;9.190;2022-10-29T05:03:47;17.20;99.90
21666;DHT22;10994;45.486;9.190;2022-10-29T05:06:13;17.10;99.90
21666;DHT22;10994;45.486;9.190;2022-10-29T05:08:39;17.10;99.90
21666;DHT22;10994;45.486;9.190;2022-10-29T05:11:05;17.10;99.90
21666;DHT22;10994;45.486;9.190;2022-10-29T05:13:32;17.00;99.90
21666;DHT22;10994;45.486;9.190;2022-10-29T05:15:59;16.90;99.90
21666;DHT22;10994;45.486;9.190;2022-10-29T05:18:24;17.00;99.90
21666;DHT22;10994;45.486;9.190;2022-10-29T05:20:54;16.90;99.90
21666;DHT22;10994;45.486;9.190;2022-10-29T05:23:19;17.00;99.90
21666;DHT22;10994;45.486;9.190;2022-10-29T05:25:45;17.10;99.90
21666;DHT22;10994;45.486;9.190;2022-10-29T05:28:18;17.10;99.90
21666;DHT22;10994;45.486;9.190;2022-10-29T05:30:44;17.20;99.90
21666;DHT22;10994;45.486;9.190;2022-10-29T05:33:11;17.30;99.90
21666;DHT22;10994;45.486;9.190;2022-10-29T05:35:38;17.30;99.90
21666;DHT22;10994;45.486;9.190;2022-10-29T05:38:04;17.10;99.90
21666;DHT22;10994;45.486;9.190;2022-10-29T05:40:30;17.10;99.90
21666;DHT22;10994;45.486;9.190;2022-10-29T05:42:57;16.90;99.90
21666;DHT22;10994;45.486;9.190;2022-10-29T05:45:22;16.70;99.90
21666;DHT22;10994;45.486;9.190;2022-10-29T05:47:57;16.50;99.90
21666;DHT22;10994;45.486;9.190;2022-10-29T05:50:23;16.40;99.90
21666;DHT22;10994;45.486;9.190;2022-10-29T06:00:27;16.40;99.90
21666;DHT22;10994;45.486;9.190;2022-10-29T06:02:53;16.50;99.90
21666;DHT22;10994;45.486;9.190;2022-10-29T06:05:19;16.40;99.90
21666;DHT22;10994;45.486;9.190;2022-10-29T06:07:45;16.40;99.90
21666;DHT22;10994;45.486;9.190;2022-10-29T06:10:10;16.30;99.90
21666;DHT22;10994;45.486;9.190;2022-10-29T06:12:36;16.30;99.90
21666;DHT22;10994;45.486;9.190;2022-10-29T06:15:02;16.30;99.90
21666;DHT22;10994;45.486;9.190;2022-10-29T06:17:28;16.30;99.90
21666;DHT22;10994;45.486;9.190;2022-10-29T06:19:53;16.20;99.90
21666;DHT22;10994;45.486;9.190;2022-10-29T06:22:19;16.20;99.90
21666;DHT22;10994;45.486;9.190;2022-10-29T06:24:45;16.30;99.90
21666;DHT22;10994;45.486;9.190;2022-10-29T06:27:10;16.30;99.90
21666;DHT22;10994;45.486;9.190;2022-10-29T06:29:36;16.50;99.90
21666;DHT22;10994;45.486;9.190;2022-10-29T06:32:02;16.90;99.90
21666;DHT22;10994;45.486;9.190;2022-10-29T06:34:28;17.20;99.90
21666;DHT22;10994;45.486;9.190;2022-10-29T06:36:54;17.10;99.90
21666;DHT22;10994;45.486;9.190;2022-10-29T06:39:20;17.00;99.90
21666;DHT22;10994;45.486;9.190;2022-10-29T06:41:46;16.80;99.90
21666;DHT22;10994;45.486;9.190;2022-10-29T06:44:17;16.60;99.90
21666;DHT22;10994;45.486;9.190;2022-10-29T06:46:43;16.50;99.90
21666;DHT22;10994;45.486;9.190;2022-10-29T06:49:08;16.40;99.90
21666;DHT22;10994;45.486;9.190;2022-10-29T06:51:34;16.30;99.90
21666;DHT22;10994;45.486;9.190;2022-10-29T06:54:00;16.30;99.90
21666;DHT22;10994;45.486;9.190;2022-10-29T06:56:26;16.30;99.90
21666;DHT22;10994;45.486;9.190;2022-10-29T06:58:53;16.20;99.90
21666;DHT22;10994;45.486;9.190;2022-10-29T07:01:18;16.20;99.90
21666;DHT22;10994;45.486;9.190;2022-10-29T07:03:44;16.20;99.90
21666;DHT22;10994;45.486;9.190;2022-10-29T07:06:09;16.20;99.90
21666;DHT22;10994;45.486;9.190;2022-10-29T07:08:35;16.20;99.90
21666;DHT22;10994;45.486;9.190;2022-10-29T07:11:01;16.10;99.90
21666;DHT22;10994;45.486;9.190;2022-10-29T07:13:27;16.20;99.90
21666;DHT22;10994;45.486;9.190;2022-10-29T07:15:53;16.30;99.90
21666;DHT22;10994;45.486;9.190;2022-10-29T07:18:18;16.40;99.90
21666;DHT22;10994;45.486;9.190;2022-10-29T07:20:44;16.40;99.90
21666;DHT22;10994;45.486;9.190;2022-10-29T07:23:11;16.40;99.90
21666;DHT22;10994;45.486;9.190;2022-10-29T07:25:38;16.40;99.90
21666;DHT22;10994;45.486;9.190;2022-10-29T07:28:06;16.60;99.90
21666;DHT22;10994;45.486;9.190;2022-10-29T07:30:33;16.70;99.90
21666;DHT22;10994;45.486;9.190;2022-10-29T07:32:58;16.60;99.90
21666;DHT22;10994;45.486;9.190;2022-10-29T07:35:24;16.70;99.90
21666;DHT22;10994;45.486;9.190;2022-10-29T07:37:50;16.70;99.90
21666;DHT22;10994;45.486;9.190;2022-10-29T07:40:16;16.70;99.90
21666;DHT22;10994;45.486;9.190;2022-10-29T07:42:41;16.80;99.90
21666;DHT22;10994;45.486;9.190;2022-10-29T07:45:07;16.80;99.90
21666;DHT22;10994;45.486;9.190;2022-10-29T07:47:33;16.80;99.90
21666;DHT22;10994;45.486;9.190;2022-10-29T07:49:58;16.80;99.90
21666;DHT22;10994;45.486;9.190;2022-10-29T07:52:24;16.90;99.90
21666;DHT22;10994;45.486;9.190;2022-10-29T07:54:50;17.00;99.90
21666;DHT22;10994;45.486;9.190;2022-10-29T07:57:15;17.10;99.90
21666;DHT22;10994;45.486;9.190;2022-10-29T07:59:41;17.20;99.90
21666;DHT22;10994;45.486;9.190;2022-10-29T08:02:10;17.30;99.90
21666;DHT22;10994;45.486;9.190;2022-10-29T08:04:36;17.40;99.90
21666;DHT22;10994;45.486;9.190;2022-10-29T08:07:01;17.50;99.90
21666;DHT22;10994;45.486;9.190;2022-10-29T08:09:27;17.50;99.90
21666;DHT22;10994;45.486;9.190;2022-10-29T08:11:53;17.50;99.90
21666;DHT22;10994;45.486;9.190;2022-10-29T08:14:18;17.60;99.90
21666;DHT22;10994;45.486;9.190;2022-10-29T08:16:44;17.70;99.90
21666;DHT22;10994;45.486;9.190;2022-10-29T08:19:11;17.80;99.90
21666;DHT22;10994;45.486;9.190;2022-10-29T08:21:37;17.90;99.90
21666;DHT22;10994;45.486;9.190;2022-10-29T08:24:02;17.90;99.90
21666;DHT22;10994;45.486;9.190;2022-10-29T08:26:28;18.00;99.90
21666;DHT22;10994;45.486;9.190;2022-10-29T08:28:54;18.10;99.90
21666;DHT22;10994;45.486;9.190;2022-10-29T08:31:19;18.20;99.90
21666;DHT22;10994;45.486;9.190;2022-10-29T08:33:48;18.30;99.90
21666;DHT22;10994;45.486;9.190;2022-10-29T08:36:16;18.30;99.90
21666;DHT22;10994;45.486;9.190;2022-10-29T08:38:42;18.40;99.90
21666;DHT22;10994;45.486;9.190;2022-10-29T08:46:42;18.80;99.90
21666;DHT22;10994;45.486;9.190;2022-10-29T08:49:19;19.50;99.90
21666;DHT22;10994;45.486;9.190;2022-10-29T08:52:09;19.90;99.90
21666;DHT22;10994;45.486;9.190;2022-10-29T08:54:38;19.90;99.90
21666;DHT22;10994;45.486;9.190;2022-10-29T08:57:17;19.70;99.90
21666;DHT22;10994;45.486;9.190;2022-10-29T09:00:04;19.50;99.90
21666;DHT22;10994;45.486;9.190;2022-10-29T09:02:30;19.50;99.90
21666;DHT22;10994;45.486;9.190;2022-10-29T09:04:56;19.50;99.90
21666;DHT22;10994;45.486;9.190;2022-10-29T09:10:19;19.50;99.90
21666;DHT22;10994;45.486;9.190;2022-10-29T09:13:11;19.50;99.90
21666;DHT22;10994;45.486;9.190;2022-10-29T09:15:54;19.50;99.90
21666;DHT22;10994;45.486;9.190;2022-10-29T09:18:41;19.50;99.90
21666;DHT22;10994;45.486;9.190;2022-10-29T09:26:42;19.60;99.90
21666;DHT22;10994;45.486;9.190;2022-10-29T09:32:14;19.60;99.90
21666;DHT22;10994;45.486;9.190;2022-10-29T09:34:55;19.60;99.90
21666;DHT22;10994;45.486;9.190;2022-10-29T09:40:22;19.60;99.90
21666;DHT22;10994;45.486;9.190;2022-10-29T09:42:50;19.60;99.90
21666;DHT22;10994;45.486;9.190;2022-10-29T09:45:17;19.70;99.90
21666;DHT22;10994;45.486;9.190;2022-10-29T09:48:10;19.70;99.90
21666;DHT22;10994;45.486;9.190;2022-10-29T09:53:17;19.80;99.90
21666;DHT22;10994;45.486;9.190;2022-10-29T09:55:44;19.90;99.90
21666;DHT22;10994;45.486;9.190;2022-10-29T09:58:23;19.90;99.90
21666;DHT22;10994;45.486;9.190;2022-10-29T10:00:50;19.90;99.90
21666;DHT22;10994;45.486;9.190;2022-10-29T10:06:08;20.00;99.90
21666;DHT22;10994;45.486;9.190;2022-10-29T10:08:55;20.00;99.90
21666;DHT22;10994;45.486;9.190;2022-10-29T10:11:20;20.10;99.90
21666;DHT22;10994;45.486;9.190;2022-10-29T10:13:54;20.10;99.90
21666;DHT22;10994;45.486;9.190;2022-10-29T10:16:28;20.10;99.90
21666;DHT22;10994;45.486;9.190;2022-10-29T10:18:54;20.20;99.90
21666;DHT22;10994;45.486;9.190;2022-10-29T10:21:31;20.20;99.90
21666;DHT22;10994;45.486;9.190;2022-10-29T10:23:58;20.20;99.90
21666;DHT22;10994;45.486;9.190;2022-10-29T10:29:10;20.30;99.90
21666;DHT22;10994;45.486;9.190;2022-10-29T10:31:40;20.30;99.90
21666;DHT22;10994;45.486;9.190;2022-10-29T10:34:24;20.40;99.90
21666;DHT22;10994;45.486;9.190;2022-10-29T10:42:06;20.50;99.90
21666;DHT22;10994;45.486;9.190;2022-10-29T10:44:46;20.50;99.90
21666;DHT22;10994;45.486;9.190;2022-10-29T10:47:12;20.50;99.90
21666;DHT22;10994;45.486;9.190;2022-10-29T10:49:38;20.50;99.90
21666;DHT22;10994;45.486;9.190;2022-10-29T10:52:12;20.60;99.90
21666;DHT22;10994;45.486;9.190;2022-10-29T10:54:40;20.50;99.90
21666;DHT22;10994;45.486;9.190;2022-10-29T11:00:05;20.60;99.90
21666;DHT22;10994;45.486;9.190;2022-10-29T11:02:53;20.60;99.90
21666;DHT22;10994;45.486;9.190;2022-10-29T11:05:39;20.70;99.90
21666;DHT22;10994;45.486;9.190;2022-10-29T11:08:22;20.70;99.90
21666;DHT22;10994;45.486;9.190;2022-10-29T11:11:18;20.70;99.90
21666;DHT22;10994;45.486;9.190;2022-10-29T11:13:47;20.80;99.90
21666;DHT22;10994;45.486;9.190;2022-10-29T11:16:18;20.80;99.90
21666;DHT22;10994;45.486;9.190;2022-10-29T11:18:59;20.80;99.90
21666;DHT22;10994;45.486;9.190;2022-10-29T11:21:36;20.80;99.90
21666;DHT22;10994;45.486;9.190;2022-10-29T11:24:24;20.90;99.90
21666;DHT22;10994;45.486;9.190;2022-10-29T11:27:05;20.90;99.90
21666;DHT22;10994;45.486;9.190;2022-10-29T11:29:51;21.00;99.90
21666;DHT22;10994;45.486;9.190;2022-10-29T11:35:08;21.10;99.90
21666;DHT22;10994;45.486;9.190;2022-10-29T11:37:56;21.10;99.90
21666;DHT22;10994;45.486;9.190;2022-10-29T11:40:36;21.20;99.90
21666;DHT22;10994;45.486;9.190;2022-10-29T11:43:10;21.20;99.90
21666;DHT22;10994;45.486;9.190;2022-10-29T11:45:45;21.20;99.90
21666;DHT22;10994;45.486;9.190;2022-10-29T11:59:26;21.50;99.90
21666;DHT22;10994;45.486;9.190;2022-10-29T12:04:47;22.10;99.90
21666;DHT22;10994;45.486;9.190;2022-10-29T12:07:33;23.90;99.90
21666;DHT22;10994;45.486;9.190;2022-10-29T12:10:31;25.90;99.90
21666;DHT22;10994;45.486;9.190;2022-10-29T12:15:54;35.60;99.90
21666;DHT22;10994;45.486;9.190;2022-10-29T12:18:37;36.40;99.90
21666;DHT22;10994;45.486;9.190;2022-10-29T12:26:47;30.50;99.90
21666;DHT22;10994;45.486;9.190;2022-10-29T12:29:22;28.40;99.90
21666;DHT22;10994;45.486;9.190;2022-10-29T12:31:55;27.00;99.90
21666;DHT22;10994;45.486;9.190;2022-10-29T12:34:41;26.10;99.90
21666;DHT22;10994;45.486;9.190;2022-10-29T12:39:47;24.80;99.90
21666;DHT22;10994;45.486;9.190;2022-10-29T12:42:24;24.60;99.90
21666;DHT22;10994;45.486;9.190;2022-10-29T12:48:20;24.10;99.90
21666;DHT22;10994;45.486;9.190;2022-10-29T12:53:42;23.50;99.90
21666;DHT22;10994;45.486;9.190;2022-10-29T12:56:10;23.40;99.90
21666;DHT22;10994;45.486;9.190;2022-10-29T12:58:46;23.30;99.90
21666;DHT22;10994;45.486;9.190;2022-10-29T13:06:43;23.10;99.90
21666;DHT22;10994;45.486;9.190;2022-10-29T13:09:22;23.10;99.90
21666;DHT22;10994;45.486;9.190;2022-10-29T13:14:45;23.00;99.90
21666;DHT22;10994;45.486;9.190;2022-10-29T13:17:33;23.00;99.90
21666;DHT22;10994;45.486;9.190;2022-10-29T13:28:43;22.80;99.90
21666;DHT22;10994;45.486;9.190;2022-10-29T13:36:03;22.80;99.90
21666;DHT22;10994;45.486;9.190;2022-10-29T13:38:38;22.80;99.90
21666;DHT22;10994;45.486;9.190;2022-10-29T13:43:34;22.80;99.90
21666;DHT22;10994;45.486;9.190;2022-10-29T13:46:31;22.80;99.90
21666;DHT22;10994;45.486;9.190;2022-10-29T13:49:05;22.80;99.90
21666;DHT22;10994;45.486;9.190;2022-10-29T13:51:39;22.70;99.90
21666;DHT22;10994;45.486;9.190;2022-10-29T13:54:14;22.70;99.90
21666;DHT22;10994;45.486;9.190;2022-10-29T13:56:59;22.70;99.90
21666;DHT22;10994;45.486;9.190;2022-10-29T14:05:13;22.90;99.90
21666;DHT22;10994;45.486;9.190;2022-10-29T14:07:59;22.90;99.90
21666;DHT22;10994;45.486;9.190;2022-10-29T14:18:38;23.00;99.90
21666;DHT22;10994;45.486;9.190;2022-10-29T14:21:10;22.90;99.90
21666;DHT22;10994;45.486;9.190;2022-10-29T14:23:37;22.90;99.90
21666;DHT22;10994;45.486;9.190;2022-10-29T14:26:15;22.80;99.90
21666;DHT22;10994;45.486;9.190;2022-10-29T14:28:41;22.80;99.90
21666;DHT22;10994;45.486;9.190;2022-10-29T14:31:21;22.80;99.90
21666;DHT22;10994;45.486;9.190;2022-10-29T14:33:54;22.80;99.90
21666;DHT22;10994;45.486;9.190;2022-10-29T14:36:43;22.80;99.90
21666;DHT22;10994;45.486;9.190;2022-10-29T14:39:23;22.80;99.90
21666;DHT22;10994;45.486;9.190;2022-10-29T14:41:50;22.80;99.90
21666;DHT22;10994;45.486;9.190;2022-10-29T14:44:19;22.70;99.90
21666;DHT22;10994;45.486;9.190;2022-10-29T14:47:06;22.70;99.90
21666;DHT22;10994;45.486;9.190;2022-10-29T14:49:37;22.70;99.90
21666;DHT22;10994;45.486;9.190;2022-10-29T14:52:15;22.70;99.90
21666;DHT22;10994;45.486;9.190;2022-10-29T14:54:46;22.70;99.90
21666;DHT22;10994;45.486;9.190;2022-10-29T14:57:15;22.70;99.90
21666;DHT22;10994;45.486;9.190;2022-10-29T15:00:01;22.60;99.90
21666;DHT22;10994;45.486;9.190;2022-10-29T15:02:32;22.60;99.90
21666;DHT22;10994;45.486;9.190;2022-10-29T15:04:59;22.60;99.90
21666;DHT22;10994;45.486;9.190;2022-10-29T15:07:31;22.60;99.90
21666;DHT22;10994;45.486;9.190;2022-10-29T15:10:17;22.60;99.90
21666;DHT22;10994;45.486;9.190;2022-10-29T15:12:43;22.50;99.90
21666;DHT22;10994;45.486;9.190;2022-10-29T15:15:30;22.50;99.90
21666;DHT22;10994;45.486;9.190;2022-10-29T15:18:22;22.50;99.90
21666;DHT22;10994;45.486;9.190;2022-10-29T15:20:48;22.40;99.90
21666;DHT22;10994;45.486;9.190;2022-10-29T15:23:42;22.40;99.90
21666;DHT22;10994;45.486;9.190;2022-10-29T15:26:20;22.40;99.90
21666;DHT22;10994;45.486;9.190;2022-10-29T15:28:47;22.40;99.90
21666;DHT22;10994;45.486;9.190;2022-10-29T15:31:21;22.40;99.90
21666;DHT22;10994;45.486;9.190;2022-10-29T15:33:50;22.40;99.90
21666;DHT22;10994;45.486;9.190;2022-10-29T15:36:16;22.30;99.90
21666;DHT22;10994;45.486;9.190;2022-10-29T15:43:49;22.30;99.90
21666;DHT22;10994;45.486;9.190;2022-10-29T15:46:44;22.30;99.90
21666;DHT22;10994;45.486;9.190;2022-10-29T15:49:14;22.30;99.90
21666;DHT22;10994;45.486;9.190;2022-10-29T15:51:40;22.30;99.90
21666;DHT22;10994;45.486;9.190;2022-10-29T15:54:10;22.20;99.90
21666;DHT22;10994;45.486;9.190;2022-10-29T15:56:39;22.20;99.90
21666;DHT22;10994;45.486;9.190;2022-10-29T15:59:05;22.20;99.90
21666;DHT22;10994;45.486;9.190;2022-10-29T16:01:33;22.20;99.90
21666;DHT22;10994;45.486;9.190;2022-10-29T16:03:58;22.20;99.90
21666;DHT22;10994;45.486;9.190;2022-10-29T16:06:24;22.10;99.90
21666;DHT22;10994;45.486;9.190;2022-10-29T16:08:54;22.10;99.90
21666;DHT22;10994;45.486;9.190;2022-10-29T16:11:21;22.10;99.90
21666;DHT22;10994;45.486;9.190;2022-10-29T16:13:51;22.10;99.90
21666;DHT22;10994;45.486;9.190;2022-10-29T16:16:21;22.10;99.90
21666;DHT22;10994;45.486;9.190;2022-10-29T16:18:48;22.10;99.90
21666;DHT22;10994;45.486;9.190;2022-10-29T16:21:23;22.10;99.90
21666;DHT22;10994;45.486;9.190;2022-10-29T16:23:50;22.00;99.90
21666;DHT22;10994;45.486;9.190;2022-10-29T16:26:18;22.00;99.90
21666;DHT22;10994;45.486;9.190;2022-10-29T16:28:44;22.00;99.90
21666;DHT22;10994;45.486;9.190;2022-10-29T16:31:21;22.00;99.90
21666;DHT22;10994;45.486;9.190;2022-10-29T16:33:49;21.90;99.90
21666;DHT22;10994;45.486;9.190;2022-10-29T16:36:16;21.90;99.90
21666;DHT22;10994;45.486;9.190;2022-10-29T16:38:42;21.90;99.90
21666;DHT22;10994;45.486;9.190;2022-10-29T16:41:12;21.80;99.90
21666;DHT22;10994;45.486;9.190;2022-10-29T16:43:38;21.80;99.90
21666;DHT22;10994;45.486;9.190;2022-10-29T16:46:04;21.70;99.90
21666;DHT22;10994;45.486;9.190;2022-10-29T16:48:30;21.70;99.90
21666;DHT22;10994;45.486;9.190;2022-10-29T16:50:55;21.60;99.90
21666;DHT22;10994;45.486;9.190;2022-10-29T16:53:21;21.60;99.90
21666;DHT22;10994;45.486;9.190;2022-10-29T16:55:46;21.60;99.90
21666;DHT22;10994;45.486;9.190;2022-10-29T16:58:14;21.60;99.90
21666;DHT22;10994;45.486;9.190;2022-10-29T17:00:40;21.60;99.90
21666;DHT22;10994;45.486;9.190;2022-10-29T17:03:06;21.60;99.90
21666;DHT22;10994;45.486;9.190;2022-10-29T17:05:41;21.50;99.90
21666;DHT22;10994;45.486;9.190;2022-10-29T17:08:07;21.50;99.90
21666;DHT22;10994;45.486;9.190;2022-10-29T17:10:34;21.50;99.90
21666;DHT22;10994;45.486;9.190;2022-10-29T17:13:00;21.50;99.90
21666;DHT22;10994;45.486;9.190;2022-10-29T17:15:26;21.50;99.90
21666;DHT22;10994;45.486;9.190;2022-10-29T17:17:52;21.40;99.90
21666;DHT22;10994;45.486;9.190;2022-10-29T17:20:18;21.40;99.90
21666;DHT22;10994;45.486;9.190;2022-10-29T17:22:43;21.40;99.90
21666;DHT22;10994;45.486;9.190;2022-10-29T17:25:09;21.30;99.90
21666;DHT22;10994;45.486;9.190;2022-10-29T17:27:39;21.20;99.90
21666;DHT22;10994;45.486;9.190;2022-10-29T17:30:06;21.20;99.90
21666;DHT22;10994;45.486;9.190;2022-10-29T17:32:33;21.20;99.90
21666;DHT22;10994;45.486;9.190;2022-10-29T17:34:59;21.20;99.90
21666;DHT22;10994;45.486;9.190;2022-10-29T17:37:26;21.20;99.90
21666;DHT22;10994;45.486;9.190;2022-10-29T17:39:51;21.20;99.90
21666;DHT22;10994;45.486;9.190;2022-10-29T17:42:17;21.20;99.90
21666;DHT22;10994;45.486;9.190;2022-10-29T17:44:43;21.20;99.90
21666;DHT22;10994;45.486;9.190;2022-10-29T17:47:09;21.20;99.90
21666;DHT22;10994;45.486;9.190;2022-10-29T17:49:38;21.10;99.90
21666;DHT22;10994;45.486;9.190;2022-10-29T17:52:04;21.10;99.90
21666;DHT22;10994;45.486;9.190;2022-10-29T17:54:31;21.10;99.90
21666;DHT22;10994;45.486;9.190;2022-10-29T17:56:56;21.10;99.90
21666;DHT22;10994;45.486;9.190;2022-10-29T17:59:22;21.10;99.90
21666;DHT22;10994;45.486;9.190;2022-10-29T18:01:48;21.00;99.90
21666;DHT22;10994;45.486;9.190;2022-10-29T18:04:14;21.00;99.90
21666;DHT22;10994;45.486;9.190;2022-10-29T18:06:39;21.00;99.90
21666;DHT22;10994;45.486;9.190;2022-10-29T18:09:05;21.00;99.90